Time;durP1;ratioP1;P1;durP2;ratioP2;P2;SDS_P1;SDS_P2;PMS_P1;PMS_P2;Temp;Humidity;BMP_temperature;BMP_pressure;BME280_temperature;BME280_humidity;BME280_pressure;Samples;Min_cycle;Max_cycle;Signal;HPM_P1;HPM_P2
2023/10/19 07:55:45;;;;;;;3.53;0.77;;;16.60;99.90;;;;;;4877672;29;20230;-69
2023/10/19 07:58:12;;;;;;;4.60;0.70;;;16.70;99.90;;;;;;4879302;29;20215;-70
2023/10/19 08:00:42;;;;;;;3.43;0.70;;;16.70;99.90;;;;;;4876786;29;20231;-68
2023/10/19 08:03:10;;;;;;;4.13;0.80;;;16.70;99.90;;;;;;4877350;29;20326;-71
2023/10/19 08:05:38;;;;;;;1.90;0.60;;;16.90;99.90;;;;;;4880472;29;20211;-68
2023/10/19 08:08:05;;;;;;;2.10;0.70;;;16.90;99.90;;;;;;4880287;29;20242;-68
2023/10/19 08:10:34;;;;;;;4.60;0.70;;;16.90;99.90;;;;;;4880798;29;20246;-68
2023/10/19 08:13:02;;;;;;;4.53;0.83;;;17.00;99.90;;;;;;4880292;29;20223;-71
2023/10/19 08:15:30;;;;;;;2.93;0.70;;;17.10;99.90;;;;;;4881431;29;20690;-71
2023/10/19 08:17:57;;;;;;;6.60;0.83;;;17.30;99.90;;;;;;4881428;29;20218;-71
2023/10/19 08:20:24;;;;;;;6.70;1.00;;;17.30;99.90;;;;;;4881241;29;20254;-71
2023/10/19 08:22:51;;;;;;;5.53;1.40;;;17.40;99.90;;;;;;4881120;29;20593;-71
2023/10/19 08:25:18;;;;;;;2.90;0.70;;;17.40;99.90;;;;;;4881491;29;20238;-71
2023/10/19 08:27:48;;;;;;;4.67;0.73;;;17.40;99.90;;;;;;4881449;29;20674;-71
2023/10/19 08:30:17;;;;;;;1.33;0.77;;;17.40;99.90;;;;;;4880980;29;20215;-71
2023/10/19 08:32:47;;;;;;;3.73;0.70;;;17.50;99.90;;;;;;4881105;29;20678;-71
2023/10/19 08:35:15;;;;;;;3.30;0.70;;;17.60;99.90;;;;;;4881028;29;20627;-71
2023/10/19 08:37:42;;;;;;;2.00;0.70;;;17.40;99.90;;;;;;4881613;29;20315;-71
2023/10/19 08:40:14;;;;;;;5.82;0.70;;;17.40;99.90;;;;;;4881052;29;20242;-71
2023/10/19 08:42:41;;;;;;;3.13;0.55;;;17.50;99.90;;;;;;4881112;29;20207;-71
2023/10/19 08:45:12;;;;;;;6.45;0.80;;;17.70;99.90;;;;;;4881074;29;20243;-71
2023/10/19 08:47:44;;;;;;;2.97;0.70;;;17.70;99.90;;;;;;4881065;29;20318;-71
2023/10/19 08:50:12;;;;;;;3.15;0.60;;;17.70;99.90;;;;;;4880792;29;20254;-71
2023/10/19 08:52:41;;;;;;;2.13;0.50;;;17.70;99.90;;;;;;4880965;29;20620;-71
2023/10/19 08:55:09;;;;;;;5.75;0.63;;;17.70;99.90;;;;;;4880736;29;20226;-71
2023/10/19 08:57:38;;;;;;;5.15;1.13;;;17.60;99.90;;;;;;4881029;29;20211;-71
2023/10/19 09:00:07;;;;;;;3.78;0.80;;;17.60;99.90;;;;;;4880505;29;20237;-71
2023/10/19 09:02:34;;;;;;;2.72;0.70;;;17.50;99.90;;;;;;4880645;29;20282;-71
2023/10/19 09:05:07;;;;;;;7.60;0.80;;;17.40;99.90;;;;;;4880507;29;20247;-71
2023/10/19 09:07:35;;;;;;;2.92;0.93;;;17.50;99.90;;;;;;4880442;29;20239;-71
2023/10/19 09:10:05;;;;;;;2.83;0.60;;;17.60;99.90;;;;;;4880505;29;20234;-72
2023/10/19 09:12:34;;;;;;;3.88;0.60;;;17.60;99.90;;;;;;4880426;29;20241;-72
2023/10/19 09:15:01;;;;;;;2.30;0.75;;;17.70;99.90;;;;;;4880796;29;20301;-72
2023/10/19 09:17:31;;;;;;;9.75;0.80;;;17.70;99.90;;;;;;4880750;29;20219;-72
2023/10/19 09:19:59;;;;;;;9.38;1.10;;;17.60;99.90;;;;;;4880651;29;20582;-72
2023/10/19 09:22:36;;;;;;;3.92;0.65;;;17.80;99.90;;;;;;4880275;29;20643;-72
2023/10/19 09:25:06;;;;;;;4.63;0.80;;;17.90;99.90;;;;;;4880026;29;20293;-72
2023/10/19 09:27:34;;;;;;;5.00;0.65;;;17.80;99.90;;;;;;4880351;29;20269;-72
2023/10/19 09:30:03;;;;;;;5.38;0.90;;;17.80;99.90;;;;;;4880398;29;20219;-72
2023/10/19 09:32:32;;;;;;;3.10;0.73;;;17.80;99.90;;;;;;4880162;29;20235;-72
2023/10/19 09:34:59;;;;;;;4.75;0.90;;;17.90;99.90;;;;;;4880098;29;20215;-72
2023/10/19 09:37:29;;;;;;;4.15;0.77;;;17.80;99.90;;;;;;4879950;29;20215;-72
2023/10/19 09:39:56;;;;;;;3.50;0.70;;;17.90;99.90;;;;;;4879921;29;20215;-72
2023/10/19 09:42:26;;;;;;;5.18;0.70;;;18.00;99.90;;;;;;4880152;29;20317;-72
2023/10/19 09:45:02;;;;;;;4.75;0.75;;;18.00;99.90;;;;;;4880156;29;20265;-72
2023/10/19 09:47:35;;;;;;;5.95;1.13;;;18.00;99.90;;;;;;4879908;29;20655;-72
2023/10/19 09:50:05;;;;;;;6.95;0.98;;;17.90;99.90;;;;;;4879811;29;20214;-72
2023/10/19 09:52:34;;;;;;;2.95;0.90;;;18.00;99.90;;;;;;4879987;29;20661;-72
2023/10/19 09:55:08;;;;;;;2.63;0.90;;;18.00;99.90;;;;;;4879891;29;20310;-72
2023/10/19 09:57:41;;;;;;;4.13;0.80;;;18.10;99.90;;;;;;4879808;29;20215;-72
2023/10/19 10:00:11;;;;;;;3.08;0.60;;;17.80;99.90;;;;;;4874258;29;20215;-72
2023/10/19 10:02:41;;;;;;;6.18;0.70;;;17.80;99.90;;;;;;4876919;29;20212;-72
2023/10/19 10:05:41;;;;;;;5.07;0.85;;;17.80;99.90;;;;;;4879026;29;20293;-72
2023/10/19 10:08:37;;;;;;;3.55;0.82;;;17.90;99.90;;;;;;4879513;29;20238;-72
2023/10/19 10:11:26;;;;;;;6.65;0.73;;;18.00;99.90;;;;;;4867956;29;20238;-72
2023/10/19 10:13:54;;;;;;;6.28;0.98;;;18.20;99.90;;;;;;4871765;29;20218;-72
2023/10/19 10:16:24;;;;;;;3.25;0.63;;;18.30;99.90;;;;;;4879050;29;20271;-72
2023/10/19 10:18:58;;;;;;;4.63;1.17;;;18.50;99.90;;;;;;4878665;29;20207;-72
2023/10/19 10:21:27;;;;;;;3.20;0.73;;;18.60;99.90;;;;;;4878403;29;20261;-72
2023/10/19 10:23:57;;;;;;;2.92;1.05;;;18.70;99.90;;;;;;4878844;29;20242;-72
2023/10/19 10:26:25;;;;;;;6.28;1.00;;;18.60;99.90;;;;;;4877611;29;20246;-72
2023/10/19 10:29:13;;;;;;;3.50;0.70;;;18.60;99.90;;;;;;4878377;29;20274;-72
2023/10/19 10:31:44;;;;;;;2.22;0.52;;;18.70;99.90;;;;;;4862260;29;20259;-72
2023/10/19 10:34:12;;;;;;;2.65;0.80;;;18.70;99.90;;;;;;4866383;29;20484;-72
2023/10/19 10:36:59;;;;;;;2.65;0.90;;;18.80;99.90;;;;;;4878357;29;20675;-72
2023/10/19 10:39:28;;;;;;;6.70;0.80;;;18.90;99.90;;;;;;4878217;29;20207;-72
2023/10/19 10:41:58;;;;;;;2.80;0.65;;;19.10;99.90;;;;;;4877925;29;20223;-72
2023/10/19 10:44:40;;;;;;;4.72;0.70;;;19.30;99.90;;;;;;4878117;29;20260;-72
2023/10/19 10:47:09;;;;;;;4.40;0.88;;;19.30;99.90;;;;;;4865658;29;20275;-72
2023/10/19 10:49:48;;;;;;;3.25;0.75;;;19.00;99.90;;;;;;4878542;29;20239;-72
2023/10/19 10:52:24;;;;;;;3.78;0.80;;;19.00;99.90;;;;;;4878237;29;20311;-72
2023/10/19 10:54:52;;;;;;;3.35;0.85;;;19.00;99.90;;;;;;4872311;29;20223;-72
2023/10/19 10:57:20;;;;;;;4.25;0.80;;;19.00;99.90;;;;;;4871541;29;20241;-72
2023/10/19 10:59:47;;;;;;;4.13;0.80;;;19.00;99.90;;;;;;4878624;29;20215;-72
2023/10/19 11:02:18;;;;;;;5.55;1.42;;;19.00;99.90;;;;;;4877867;29;20258;-72
2023/10/19 11:04:46;;;;;;;3.53;1.13;;;19.00;99.90;;;;;;4878059;29;20363;-72
2023/10/19 11:07:19;;;;;;;3.08;1.15;;;18.80;99.90;;;;;;4878174;29;20227;-72
2023/10/19 11:09:47;;;;;;;2.97;0.77;;;18.80;99.90;;;;;;4875657;29;20235;-72
2023/10/19 11:12:16;;;;;;;6.05;0.93;;;18.70;99.90;;;;;;4877557;29;20693;-72
2023/10/19 11:14:54;;;;;;;3.05;1.10;;;18.60;99.90;;;;;;4877798;29;20203;-72
2023/10/19 11:17:23;;;;;;;6.35;0.95;;;18.40;99.90;;;;;;4881348;29;20301;-72
2023/10/19 11:19:50;;;;;;;5.07;0.77;;;18.20;99.90;;;;;;4881106;29;20215;-72
2023/10/19 11:22:17;;;;;;;3.63;0.65;;;18.10;99.90;;;;;;4881522;29;20294;-72
2023/10/19 11:24:44;;;;;;;4.63;0.60;;;18.20;99.90;;;;;;4881917;29;20386;-72
2023/10/19 11:27:12;;;;;;;6.97;0.95;;;18.20;99.90;;;;;;4881479;29;20215;-72
2023/10/19 11:29:40;;;;;;;3.60;0.80;;;18.20;99.90;;;;;;4881694;29;20242;-72
2023/10/19 11:32:07;;;;;;;5.20;0.85;;;18.30;99.90;;;;;;4880582;29;20662;-72
2023/10/19 11:34:34;;;;;;;2.33;0.60;;;18.40;99.90;;;;;;4881804;29;20243;-72
2023/10/19 11:37:03;;;;;;;2.67;0.70;;;18.60;99.90;;;;;;4881399;29;20295;-72
2023/10/19 11:39:30;;;;;;;3.35;0.65;;;18.70;99.90;;;;;;4881453;29;20215;-72
2023/10/19 11:41:57;;;;;;;6.50;0.90;;;18.50;99.90;;;;;;4881049;29;20235;-72
2023/10/19 11:44:24;;;;;;;3.92;0.80;;;18.40;99.90;;;;;;4881794;29;20586;-71
2023/10/19 11:46:52;;;;;;;5.45;0.63;;;18.40;99.90;;;;;;4881321;29;20239;-72
2023/10/19 11:49:20;;;;;;;3.20;0.68;;;18.40;99.90;;;;;;4881768;29;20235;-72
2023/10/19 11:51:47;;;;;;;5.82;0.60;;;18.40;99.90;;;;;;4881187;29;20261;-72
2023/10/19 11:54:14;;;;;;;3.85;0.82;;;18.60;99.90;;;;;;4881294;29;20895;-72
2023/10/19 11:56:40;;;;;;;1.55;0.50;;;18.60;99.90;;;;;;4881193;29;20212;-72
2023/10/19 11:59:08;;;;;;;3.35;0.85;;;18.60;99.90;;;;;;4878499;29;20608;-72
2023/10/19 12:01:35;;;;;;;1.60;0.63;;;18.60;99.90;;;;;;4881025;29;20237;-72
2023/10/19 12:04:05;;;;;;;3.00;0.60;;;18.60;99.90;;;;;;4881355;29;20215;-72
2023/10/19 12:06:32;;;;;;;2.65;0.82;;;18.60;99.90;;;;;;4881152;29;20247;-72
2023/10/19 12:09:05;;;;;;;2.22;1.23;;;18.50;99.90;;;;;;4880789;29;20679;-72
2023/10/19 12:11:32;;;;;;;1.67;0.60;;;18.50;99.90;;;;;;4878858;29;20231;-72
2023/10/19 12:14:03;;;;;;;1.27;0.75;;;18.50;99.90;;;;;;4877431;29;20208;-73
2023/10/19 12:16:31;;;;;;;2.33;0.70;;;18.50;99.90;;;;;;4880723;29;20208;-72
2023/10/19 12:18:58;;;;;;;2.72;0.60;;;18.40;99.90;;;;;;4881224;29;20211;-72
2023/10/19 12:21:30;;;;;;;2.67;0.70;;;18.20;99.90;;;;;;4880946;29;20707;-72
2023/10/19 12:23:59;;;;;;;2.88;1.02;;;18.00;99.90;;;;;;4880922;29;20219;-75
2023/10/19 12:26:26;;;;;;;1.13;0.40;;;18.00;99.90;;;;;;4878153;29;20679;-73
2023/10/19 12:28:53;;;;;;;1.77;0.70;;;17.80;99.90;;;;;;4881036;29;20334;-73
2023/10/19 12:31:22;;;;;;;1.60;0.50;;;17.90;99.90;;;;;;4881130;29;20231;-72
2023/10/19 12:33:48;;;;;;;1.13;0.50;;;17.90;99.90;;;;;;4880784;29;20251;-73
2023/10/19 12:36:31;;;;;;;0.90;0.50;;;17.70;99.90;;;;;;4880176;29;20298;-73
2023/10/19 12:38:59;;;;;;;2.63;0.60;;;17.60;99.90;;;;;;4879299;29;20218;-72
2023/10/19 12:41:27;;;;;;;1.67;0.50;;;17.50;99.90;;;;;;4875074;29;20726;-73
2023/10/19 12:43:57;;;;;;;1.70;0.50;;;17.60;99.90;;;;;;4880322;29;20203;-72
2023/10/19 12:46:25;;;;;;;1.63;0.70;;;17.70;99.90;;;;;;4880786;29;20287;-73
2023/10/19 12:48:52;;;;;;;0.95;0.52;;;17.90;99.90;;;;;;4880832;29;20572;-72
2023/10/19 12:51:23;;;;;;;0.82;0.40;;;18.10;99.90;;;;;;4880910;29;20243;-72
2023/10/19 12:53:51;;;;;;;1.10;0.50;;;18.20;99.90;;;;;;4880549;29;20242;-72
2023/10/19 12:56:19;;;;;;;1.80;0.30;;;18.30;99.90;;;;;;4880595;29;20222;-72
2023/10/19 12:58:48;;;;;;;2.30;0.50;;;18.60;99.90;;;;;;4880497;29;20242;-73
2023/10/19 13:01:18;;;;;;;0.55;0.32;;;18.80;99.90;;;;;;4880758;29;20235;-73
2023/10/19 13:03:46;;;;;;;0.77;0.43;;;19.10;99.90;;;;;;4880295;29;20211;-72
2023/10/19 13:06:13;;;;;;;2.15;0.38;;;19.10;99.90;;;;;;4879850;29;20207;-73
2023/10/19 13:08:41;;;;;;;1.33;0.60;;;19.20;99.90;;;;;;4880527;29;20235;-72
2023/10/19 13:11:09;;;;;;;0.75;0.40;;;19.10;99.90;;;;;;4880564;29;20273;-71
2023/10/19 13:13:39;;;;;;;1.17;0.30;;;19.00;99.90;;;;;;4880017;29;20279;-72
2023/10/19 13:16:08;;;;;;;0.75;0.40;;;18.90;99.90;;;;;;4880626;29;20207;-72
2023/10/19 13:18:36;;;;;;;0.63;0.35;;;18.80;99.90;;;;;;4880082;29;20393;-72
2023/10/19 13:21:04;;;;;;;3.35;0.43;;;18.80;99.90;;;;;;4880507;29;20231;-72
2023/10/19 13:23:32;;;;;;;0.70;0.40;;;18.90;99.90;;;;;;4880323;29;20207;-72
2023/10/19 13:26:08;;;;;;;1.42;0.47;;;18.70;99.90;;;;;;4880414;29;20211;-72
2023/10/19 13:28:37;;;;;;;0.40;0.32;;;18.60;99.90;;;;;;4880120;29;20671;-72
2023/10/19 13:31:09;;;;;;;1.45;0.68;;;18.60;99.90;;;;;;4879759;29;20242;-72
2023/10/19 13:33:36;;;;;;;1.17;0.55;;;18.60;99.90;;;;;;4878995;29;20219;-73
2023/10/19 13:36:05;;;;;;;1.02;0.38;;;18.60;99.90;;;;;;4879442;29;20675;-73
2023/10/19 13:38:32;;;;;;;1.65;0.60;;;18.70;99.90;;;;;;4879372;29;20211;-73
2023/10/19 13:40:59;;;;;;;0.80;0.47;;;18.70;99.90;;;;;;4879990;29;20615;-73
2023/10/19 13:43:26;;;;;;;2.35;0.50;;;18.70;99.90;;;;;;4879443;29;20251;-73
2023/10/19 13:45:53;;;;;;;0.95;0.60;;;18.60;99.90;;;;;;4879977;29;20305;-73
2023/10/19 13:48:22;;;;;;;2.03;0.52;;;18.70;99.90;;;;;;4879988;29;20749;-72
2023/10/19 13:50:52;;;;;;;0.52;0.30;;;18.60;99.90;;;;;;4879327;29;20673;-72
2023/10/19 13:53:20;;;;;;;1.85;0.40;;;18.60;99.90;;;;;;4879400;29;20212;-72
2023/10/19 13:55:48;;;;;;;0.77;0.47;;;18.70;99.90;;;;;;4876644;29;20207;-72
2023/10/19 13:58:15;;;;;;;0.50;0.40;;;18.70;99.90;;;;;;4878688;29;20213;-71
2023/10/19 14:00:43;;;;;;;1.50;0.40;;;18.70;99.90;;;;;;4879205;29;20223;-74
2023/10/19 14:03:12;;;;;;;1.02;0.50;;;18.70;99.90;;;;;;4879130;29;20207;-72
2023/10/19 14:05:42;;;;;;;1.13;0.65;;;18.60;99.90;;;;;;4879371;29;20714;-72
2023/10/19 14:08:10;;;;;;;1.60;0.60;;;18.50;99.90;;;;;;4879073;29;20678;-72
2023/10/19 14:10:39;;;;;;;0.60;0.40;;;18.50;99.90;;;;;;4878537;29;20325;-73
2023/10/19 14:13:06;;;;;;;0.63;0.35;;;18.40;99.90;;;;;;4879601;29;20218;-73
2023/10/19 14:15:33;;;;;;;1.15;0.47;;;18.50;99.90;;;;;;4879148;29;20745;-73
2023/10/19 14:18:01;;;;;;;0.32;0.32;;;18.50;99.90;;;;;;4879782;29;20223;-73
2023/10/19 14:20:33;;;;;;;0.75;0.50;;;18.60;99.90;;;;;;4879416;29;20243;-74
2023/10/19 14:23:04;;;;;;;0.93;0.30;;;18.50;99.90;;;;;;4879419;29;20215;-73
2023/10/19 14:25:31;;;;;;;0.50;0.45;;;18.50;99.90;;;;;;4879446;29;20275;-73
2023/10/19 14:27:59;;;;;;;0.60;0.30;;;18.40;99.90;;;;;;4879068;29;20253;-73
2023/10/19 14:30:28;;;;;;;1.45;0.35;;;18.50;99.90;;;;;;4878278;29;20794;-73
2023/10/19 14:32:55;;;;;;;0.82;0.30;;;18.40;99.90;;;;;;4860259;29;20208;-73
2023/10/19 14:35:25;;;;;;;1.67;0.30;;;18.40;99.90;;;;;;4860188;29;20243;-73
2023/10/19 14:37:54;;;;;;;1.42;0.43;;;18.40;99.90;;;;;;4860318;29;20216;-73
2023/10/19 14:40:24;;;;;;;0.30;0.30;;;18.40;99.90;;;;;;4860479;29;20299;-72
2023/10/19 14:42:53;;;;;;;1.00;0.30;;;18.40;99.90;;;;;;4860682;29;20212;-73
2023/10/19 14:45:25;;;;;;;1.88;0.40;;;18.50;99.90;;;;;;4860436;29;20667;-73
2023/10/19 14:47:54;;;;;;;0.57;0.30;;;18.50;99.90;;;;;;4860605;29;20212;-73
2023/10/19 14:50:22;;;;;;;1.05;0.30;;;18.60;99.90;;;;;;4862634;29;20347;-73
2023/10/19 14:52:51;;;;;;;0.55;0.40;;;18.60;99.90;;;;;;4864287;29;20235;-73
2023/10/19 14:55:18;;;;;;;0.50;0.40;;;18.60;99.90;;;;;;4863569;29;20235;-73
2023/10/19 14:57:48;;;;;;;0.75;0.50;;;18.70;99.90;;;;;;4863396;29;20250;-73
2023/10/19 15:00:21;;;;;;;0.35;0.30;;;18.70;99.90;;;;;;4863811;29;20713;-74
2023/10/19 15:02:50;;;;;;;0.45;0.35;;;18.70;99.90;;;;;;4863519;29;20207;-73
2023/10/19 15:05:17;;;;;;;0.75;0.38;;;18.70;99.90;;;;;;4863755;29;20216;-73
2023/10/19 15:07:45;;;;;;;2.03;0.38;;;18.70;99.90;;;;;;4863496;29;20250;-73
2023/10/19 15:10:13;;;;;;;1.35;0.30;;;18.80;99.90;;;;;;4863019;29;20330;-74
2023/10/19 15:12:40;;;;;;;1.58;0.40;;;18.90;99.90;;;;;;4863441;29;20240;-73
2023/10/19 15:15:10;;;;;;;0.60;0.40;;;19.00;99.90;;;;;;4863368;29;20284;-74
2023/10/19 15:17:39;;;;;;;0.40;0.40;;;19.00;99.90;;;;;;4863358;29;20276;-74
2023/10/19 15:20:07;;;;;;;1.88;0.30;;;19.00;99.90;;;;;;4863562;29;20211;-74
2023/10/19 15:22:34;;;;;;;1.95;0.40;;;18.90;99.90;;;;;;4863256;29;20239;-73
2023/10/19 15:25:01;;;;;;;0.93;0.38;;;18.80;99.90;;;;;;4863287;29;20636;-74
2023/10/19 15:27:29;;;;;;;1.08;0.40;;;18.90;99.90;;;;;;4863208;29;20294;-74
2023/10/19 15:29:56;;;;;;;1.38;0.32;;;19.00;99.90;;;;;;4863254;29;20235;-74
2023/10/19 15:32:25;;;;;;;0.60;0.30;;;19.00;99.90;;;;;;4863016;29;20322;-74
2023/10/19 15:34:52;;;;;;;1.00;0.50;;;19.10;99.90;;;;;;4863145;29;20212;-74
2023/10/19 15:37:20;;;;;;;0.95;0.40;;;19.00;99.90;;;;;;4863346;29;20216;-74
2023/10/19 15:39:47;;;;;;;0.47;0.30;;;19.00;99.90;;;;;;4863083;29;20254;-74
2023/10/19 15:42:13;;;;;;;0.90;0.40;;;19.10;99.90;;;;;;4863482;29;20715;-73
2023/10/19 15:44:40;;;;;;;0.88;0.70;;;19.00;99.90;;;;;;4863465;29;20377;-74
2023/10/19 15:47:12;;;;;;;0.68;0.50;;;19.00;99.90;;;;;;4862993;29;20219;-74
2023/10/19 15:49:48;;;;;;;1.88;0.55;;;18.80;99.90;;;;;;4863081;29;20232;-73
2023/10/19 15:52:18;;;;;;;0.50;0.32;;;18.70;99.90;;;;;;4862988;29;20232;-74
2023/10/19 15:54:45;;;;;;;0.40;0.38;;;18.70;99.90;;;;;;4862425;29;20310;-74
2023/10/19 15:57:12;;;;;;;1.25;0.50;;;18.70;99.90;;;;;;4863212;29;20262;-74
2023/10/19 15:59:39;;;;;;;0.75;0.50;;;18.70;99.90;;;;;;4863249;29;20243;-73
2023/10/19 16:02:05;;;;;;;0.40;0.35;;;18.80;99.90;;;;;;4862173;29;20228;-73
2023/10/19 16:04:32;;;;;;;1.17;0.50;;;18.70;99.90;;;;;;4863260;29;20320;-74
2023/10/19 16:07:01;;;;;;;2.70;0.77;;;18.70;99.90;;;;;;4862842;29;20298;-73
2023/10/19 16:09:27;;;;;;;0.73;0.60;;;18.80;99.90;;;;;;4862944;29;20295;-73
2023/10/19 16:11:55;;;;;;;1.58;0.40;;;18.80;99.90;;;;;;4863013;29;20327;-74
2023/10/19 16:14:23;;;;;;;3.40;0.70;;;18.80;99.90;;;;;;4862784;29;20250;-73
2023/10/19 16:16:50;;;;;;;0.50;0.40;;;18.70;99.90;;;;;;4862819;29;20572;-73
2023/10/19 16:19:17;;;;;;;0.65;0.50;;;18.60;99.90;;;;;;4862799;29;20297;-74
2023/10/19 16:21:45;;;;;;;2.45;0.60;;;18.50;99.90;;;;;;4862627;29;20235;-73
2023/10/19 16:24:14;;;;;;;1.85;0.85;;;18.40;99.90;;;;;;4862458;29;20223;-74
2023/10/19 16:26:41;;;;;;;1.15;0.68;;;18.30;99.90;;;;;;4862344;29;20739;-74
2023/10/19 16:29:14;;;;;;;1.10;0.80;;;18.20;99.90;;;;;;4862711;29;20651;-74
2023/10/19 16:31:42;;;;;;;1.42;0.90;;;18.20;99.90;;;;;;4862385;29;20243;-74
2023/10/19 16:34:10;;;;;;;2.38;0.80;;;18.10;99.90;;;;;;4862217;29;20315;-74
2023/10/19 16:36:37;;;;;;;1.98;0.80;;;18.10;99.90;;;;;;4862222;29;20212;-73
2023/10/19 16:39:04;;;;;;;2.78;1.10;;;17.90;99.90;;;;;;4862623;29;20220;-73
2023/10/19 16:41:34;;;;;;;0.90;0.70;;;17.80;99.90;;;;;;4862310;29;20240;-73
2023/10/19 16:44:01;;;;;;;1.60;0.82;;;17.70;99.90;;;;;;4862142;29;20255;-74
2023/10/19 16:46:29;;;;;;;1.48;0.73;;;17.60;99.90;;;;;;4861845;29;20304;-73
2023/10/19 16:48:55;;;;;;;1.00;0.70;;;17.50;99.90;;;;;;4861862;29;20220;-74
2023/10/19 16:51:23;;;;;;;1.00;0.70;;;17.40;99.90;;;;;;4861983;29;20334;-74
2023/10/19 16:53:49;;;;;;;3.50;0.80;;;17.20;99.90;;;;;;4861808;29;20255;-74
2023/10/19 16:56:16;;;;;;;0.60;0.45;;;17.10;99.90;;;;;;4861985;29;20315;-74
2023/10/19 16:58:45;;;;;;;1.25;0.60;;;17.00;99.90;;;;;;4861843;29;20731;-73
2023/10/19 17:01:14;;;;;;;0.90;0.50;;;17.00;99.90;;;;;;4861529;29;20696;-74
2023/10/19 17:03:41;;;;;;;1.23;0.75;;;17.00;99.90;;;;;;4861878;29;20234;-74
2023/10/19 17:06:09;;;;;;;1.45;0.75;;;17.10;99.90;;;;;;4861525;29;20216;-74
2023/10/19 17:08:36;;;;;;;1.25;0.80;;;17.00;99.90;;;;;;4876499;29;20221;-74
2023/10/19 17:11:03;;;;;;;3.20;1.02;;;16.90;99.90;;;;;;4879162;29;20273;-74
2023/10/19 17:13:30;;;;;;;3.92;1.13;;;16.90;99.90;;;;;;4878885;29;20307;-74
2023/10/19 17:15:59;;;;;;;4.80;1.48;;;16.80;99.90;;;;;;4879363;29;20298;-74
2023/10/19 17:18:26;;;;;;;3.70;1.77;;;16.80;99.90;;;;;;4879478;29;20219;-74
2023/10/19 17:20:54;;;;;;;2.40;0.90;;;16.80;99.90;;;;;;4879777;29;20262;-74
2023/10/19 17:23:21;;;;;;;6.20;1.92;;;16.70;99.90;;;;;;4879441;29;20239;-74
2023/10/19 17:25:47;;;;;;;5.07;2.15;;;16.60;99.90;;;;;;4879256;29;20298;-73
2023/10/19 17:28:15;;;;;;;4.93;1.73;;;16.70;99.90;;;;;;4879265;29;20658;-74
2023/10/19 17:30:42;;;;;;;7.18;2.13;;;16.60;99.90;;;;;;4879056;29;20300;-73
2023/10/19 17:33:10;;;;;;;5.85;2.03;;;16.60;99.90;;;;;;4879498;29;20261;-74
2023/10/19 17:35:38;;;;;;;3.60;1.13;;;16.60;99.90;;;;;;4879847;29;20299;-74
2023/10/19 17:38:06;;;;;;;3.20;1.70;;;16.50;99.90;;;;;;4878646;29;20646;-74
2023/10/19 17:40:33;;;;;;;4.13;1.30;;;16.50;99.90;;;;;;4878913;29;20227;-73
2023/10/19 17:42:59;;;;;;;3.45;1.38;;;16.50;99.90;;;;;;4879404;29;20658;-73
2023/10/19 17:45:26;;;;;;;1.00;0.77;;;16.50;99.90;;;;;;4879134;29;20239;-75
2023/10/19 17:47:53;;;;;;;2.00;1.10;;;16.40;99.90;;;;;;4879532;29;20274;-74
2023/10/19 17:50:23;;;;;;;2.73;1.20;;;16.40;99.90;;;;;;4878936;29;20330;-74
2023/10/19 17:52:50;;;;;;;2.23;1.40;;;16.20;99.90;;;;;;4879196;29;20222;-75
2023/10/19 17:55:20;;;;;;;2.20;0.97;;;16.30;99.90;;;;;;4878795;29;20301;-75
2023/10/19 17:57:49;;;;;;;0.80;0.50;;;16.30;99.90;;;;;;4879132;29;20314;-74
2023/10/19 18:00:19;;;;;;;1.87;0.70;;;16.10;99.90;;;;;;4879029;29;20267;-75
2023/10/19 18:02:46;;;;;;;2.50;0.90;;;16.10;99.90;;;;;;4879598;29;20253;-73
2023/10/19 18:05:14;;;;;;;1.35;0.80;;;16.10;99.90;;;;;;4878832;29;20297;-73
2023/10/19 18:07:42;;;;;;;1.67;1.00;;;16.10;99.90;;;;;;4878726;29;20218;-73
2023/10/19 18:10:11;;;;;;;2.23;1.30;;;16.00;99.90;;;;;;4878329;29;20568;-74
2023/10/19 18:12:38;;;;;;;2.03;1.27;;;16.10;99.90;;;;;;4878525;29;20207;-74
2023/10/19 18:15:07;;;;;;;3.77;0.90;;;16.10;99.90;;;;;;4875776;29;20642;-74
2023/10/19 18:17:34;;;;;;;2.90;1.00;;;16.10;99.90;;;;;;4878721;29;20215;-74
2023/10/19 18:20:01;;;;;;;2.53;0.97;;;16.10;99.90;;;;;;4879029;29;20306;-74
2023/10/19 18:22:28;;;;;;;1.30;0.70;;;16.10;99.90;;;;;;4878829;29;20306;-74
2023/10/19 18:24:56;;;;;;;2.03;0.60;;;16.10;99.90;;;;;;4878228;29;20294;-73
2023/10/19 18:27:23;;;;;;;0.98;0.50;;;16.20;99.90;;;;;;4878619;29;20207;-74
2023/10/19 18:29:50;;;;;;;1.10;0.80;;;16.10;99.90;;;;;;4878939;29;20215;-73
2023/10/19 18:32:17;;;;;;;1.60;0.87;;;16.10;99.90;;;;;;4878228;29;20322;-74
2023/10/19 18:34:44;;;;;;;1.57;0.93;;;16.10;99.90;;;;;;4878643;29;20290;-74
2023/10/19 18:37:11;;;;;;;2.83;1.00;;;16.00;99.90;;;;;;4878225;29;20297;-73
2023/10/19 18:39:38;;;;;;;1.63;1.00;;;16.10;99.90;;;;;;4878583;29;20297;-73
2023/10/19 18:42:09;;;;;;;5.65;0.82;;;16.10;99.90;;;;;;4878565;29;20267;-74
2023/10/19 18:44:36;;;;;;;2.70;0.90;;;16.10;99.90;;;;;;4878850;29;20217;-74
2023/10/19 18:47:04;;;;;;;1.77;1.03;;;16.00;99.90;;;;;;4877740;29;20246;-73
2023/10/19 18:49:31;;;;;;;2.73;1.00;;;16.00;99.90;;;;;;4878629;29;20215;-73
2023/10/19 18:51:58;;;;;;;2.50;0.90;;;16.00;99.90;;;;;;4878024;29;20263;-73
2023/10/19 18:54:25;;;;;;;2.93;0.90;;;16.00;99.90;;;;;;4878410;29;20269;-73
2023/10/19 18:56:52;;;;;;;1.87;0.80;;;16.00;99.90;;;;;;4878063;29;20207;-74
2023/10/19 18:59:20;;;;;;;0.90;0.80;;;16.00;99.90;;;;;;4878829;29;20237;-73
2023/10/19 19:01:48;;;;;;;1.53;1.17;;;15.90;99.90;;;;;;4878088;29;20318;-73
2023/10/19 19:04:16;;;;;;;2.10;1.23;;;16.00;99.90;;;;;;4878408;29;20211;-73
2023/10/19 19:06:44;;;;;;;1.50;0.90;;;16.00;99.90;;;;;;4866201;29;20243;-73
2023/10/19 19:09:11;;;;;;;1.67;1.20;;;15.90;99.90;;;;;;4878051;29;20310;-73
2023/10/19 19:11:42;;;;;;;2.23;1.47;;;15.90;99.90;;;;;;4878248;29;20257;-73
2023/10/19 19:14:09;;;;;;;4.10;1.70;;;15.90;99.90;;;;;;4878202;29;20674;-73
2023/10/19 19:16:37;;;;;;;2.90;1.27;;;15.90;99.90;;;;;;4878514;29;20229;-74
2023/10/19 19:19:04;;;;;;;1.87;1.20;;;15.90;99.90;;;;;;4878807;29;20246;-73
2023/10/19 19:21:32;;;;;;;2.00;1.20;;;15.90;99.90;;;;;;4878224;29;20766;-72
2023/10/19 19:24:00;;;;;;;2.27;1.00;;;15.80;99.90;;;;;;4878476;29;20211;-73
2023/10/19 19:26:26;;;;;;;1.77;1.50;;;15.80;99.90;;;;;;4878007;29;20238;-73
2023/10/19 19:28:53;;;;;;;2.47;1.10;;;15.80;99.90;;;;;;4878300;29;20301;-72
2023/10/19 19:31:21;;;;;;;1.73;1.00;;;15.70;99.90;;;;;;4877701;29;20329;-73
2023/10/19 19:33:50;;;;;;;1.40;0.97;;;15.70;99.90;;;;;;4877949;29;20218;-72
2023/10/19 19:36:17;;;;;;;2.30;1.00;;;15.60;99.90;;;;;;4879138;29;20226;-74
2023/10/19 19:38:44;;;;;;;2.23;1.10;;;15.70;99.90;;;;;;4881100;29;20574;-74
2023/10/19 19:41:12;;;;;;;2.00;1.33;;;15.60;99.90;;;;;;4881294;29;20235;-73
2023/10/19 19:43:39;;;;;;;3.40;1.33;;;15.60;99.90;;;;;;4880997;29;20271;-74
2023/10/19 19:46:06;;;;;;;1.63;1.00;;;15.70;99.90;;;;;;4881163;29;20251;-74
2023/10/19 19:48:33;;;;;;;2.67;1.53;;;15.70;99.90;;;;;;4881059;29;20294;-74
2023/10/19 19:51:03;;;;;;;2.13;1.13;;;15.70;99.90;;;;;;4881131;29;20354;-74
2023/10/19 19:53:30;;;;;;;1.60;1.07;;;15.60;99.90;;;;;;4881980;29;20225;-74
2023/10/19 19:55:59;;;;;;;2.83;1.03;;;15.50;99.90;;;;;;4880985;29;20667;-73
2023/10/19 19:58:27;;;;;;;1.60;1.10;;;15.50;99.90;;;;;;4881405;29;20214;-74
2023/10/19 20:00:54;;;;;;;1.70;1.10;;;15.50;99.90;;;;;;4881258;29;20231;-74
2023/10/19 20:03:21;;;;;;;3.03;1.30;;;15.50;99.90;;;;;;4881118;29;20215;-73
2023/10/19 20:05:48;;;;;;;1.70;1.30;;;15.40;99.90;;;;;;4881243;29;20207;-73
2023/10/19 20:08:16;;;;;;;1.90;1.30;;;15.50;99.90;;;;;;4880953;29;20211;-75
2023/10/19 20:10:44;;;;;;;1.70;1.20;;;15.40;99.90;;;;;;4880786;29;20235;-74
2023/10/19 20:13:13;;;;;;;2.30;1.10;;;15.50;99.90;;;;;;4880912;29;20239;-73
2023/10/19 20:15:40;;;;;;;1.90;1.00;;;15.50;99.90;;;;;;4880816;29;20682;-74
2023/10/19 20:18:09;;;;;;;1.40;1.10;;;15.50;99.90;;;;;;4880696;29;20322;-73
2023/10/19 20:20:36;;;;;;;2.63;1.07;;;15.40;99.90;;;;;;4880992;29;20580;-74
2023/10/19 20:23:04;;;;;;;1.80;1.00;;;15.50;99.90;;;;;;4880600;29;20675;-74
2023/10/19 20:25:33;;;;;;;1.87;1.00;;;15.50;99.90;;;;;;4880487;29;20219;-73
2023/10/19 20:28:04;;;;;;;3.90;1.47;;;15.50;99.90;;;;;;4880445;29;20219;-74
2023/10/19 20:30:31;;;;;;;1.60;1.10;;;15.50;99.90;;;;;;4880686;29;20632;-73
2023/10/19 20:32:58;;;;;;;2.20;1.30;;;15.50;99.90;;;;;;4880809;29;20208;-73
2023/10/19 20:35:26;;;;;;;1.90;1.10;;;15.40;99.90;;;;;;4880980;29;20211;-73
2023/10/19 20:37:53;;;;;;;1.60;1.07;;;15.40;99.90;;;;;;4868199;29;20211;-73
2023/10/19 20:40:22;;;;;;;1.30;0.90;;;15.40;99.90;;;;;;4880207;29;20527;-73
2023/10/19 20:42:53;;;;;;;2.20;1.30;;;15.40;99.90;;;;;;4868915;29;20207;-74
2023/10/19 20:45:20;;;;;;;1.97;1.20;;;15.40;99.90;;;;;;4880561;29;20378;-75
2023/10/19 20:47:48;;;;;;;1.80;1.10;;;15.40;99.90;;;;;;4880562;29;20663;-74
2023/10/19 20:50:15;;;;;;;1.27;1.00;;;15.30;99.90;;;;;;4880167;29;20352;-73